Time;durP1;ratioP1;P1;durP2;ratioP2;P2;SDS_P1;SDS_P2;PMS_P1;PMS_P2;Temp;Humidity;BMP_temperature;BMP_pressure;BME280_temperature;BME280_humidity;BME280_pressure;Samples;Min_cycle;Max_cycle;Signal;HPM_P1;HPM_P2
2023/12/22 00:02:16;;;;;;;9.93;9.25;;;;;;;;;;4897313;29;20071;-84
2023/12/22 00:04:42;;;;;;;9.93;9.02;;;;;;;;;;4889093;29;20048;-84
2023/12/22 00:07:07;;;;;;;9.90;9.07;;;;;;;;;;4875116;29;20110;-84
2023/12/22 00:09:33;;;;;;;10.60;9.57;;;;;;;;;;4881467;29;20050;-84
2023/12/22 00:11:59;;;;;;;9.75;9.07;;;;;;;;;;4889225;29;20067;-84
2023/12/22 00:14:24;;;;;;;9.30;8.65;;;;;;;;;;4879056;29;20149;-83
2023/12/22 00:16:50;;;;;;;11.43;10.07;;;;;;;;;;4889071;29;20122;-84
2023/12/22 00:19:15;;;;;;;9.75;8.95;;;;;;;;;;4879209;29;20560;-83
2023/12/22 00:21:41;;;;;;;9.98;9.13;;;;;;;;;;4872506;29;20056;-83
2023/12/22 00:24:07;;;;;;;10.70;9.68;;;;;;;;;;4877303;29;20039;-83
2023/12/22 00:26:32;;;;;;;11.02;9.55;;;;;;;;;;4920886;29;20032;-85
2023/12/22 00:28:58;;;;;;;10.02;9.13;;;;;;;;;;4874868;29;20048;-83
2023/12/22 00:31:23;;;;;;;9.93;9.15;;;;;;;;;;4897682;29;20435;-85
2023/12/22 00:33:49;;;;;;;10.95;9.95;;;;;;;;;;4882836;29;20375;-84
2023/12/22 00:36:15;;;;;;;9.70;8.85;;;;;;;;;;4881648;29;20132;-84
2023/12/22 00:38:40;;;;;;;10.43;8.70;;;;;;;;;;4889028;29;20067;-85
2023/12/22 00:41:06;;;;;;;10.30;9.43;;;;;;;;;;4891083;29;20579;-83
2023/12/22 00:43:31;;;;;;;10.02;9.20;;;;;;;;;;4894112;29;20044;-84
2023/12/22 00:45:57;;;;;;;9.48;8.70;;;;;;;;;;4908571;29;20479;-84
2023/12/22 00:48:23;;;;;;;9.68;8.73;;;;;;;;;;4869938;29;20501;-85
2023/12/22 00:50:49;;;;;;;10.35;9.35;;;;;;;;;;4875919;29;20041;-84
2023/12/22 00:53:15;;;;;;;11.40;10.27;;;;;;;;;;4912636;29;20423;-85
2023/12/22 00:55:40;;;;;;;11.23;10.13;;;;;;;;;;4900921;29;20048;-85
2023/12/22 00:58:06;;;;;;;9.55;8.82;;;;;;;;;;4871649;29;20059;-85
2023/12/22 01:00:31;;;;;;;9.30;8.48;;;;;;;;;;4892788;29;20526;-84
2023/12/22 01:02:57;;;;;;;9.45;8.75;;;;;;;;;;4877009;29;20032;-84
2023/12/22 01:05:22;;;;;;;9.82;9.02;;;;;;;;;;4880707;29;20114;-84
2023/12/22 01:07:48;;;;;;;10.25;9.18;;;;;;;;;;4876446;29;20055;-83
2023/12/22 01:10:16;;;;;;;10.32;9.60;;;;;;;;;;4909728;29;20051;-83
2023/12/22 01:12:41;;;;;;;10.32;9.63;;;;;;;;;;4875101;29;20043;-84
2023/12/22 01:15:08;;;;;;;10.18;9.48;;;;;;;;;;4877476;29;20044;-84
2023/12/22 01:17:33;;;;;;;9.82;9.23;;;;;;;;;;4873888;29;20055;-84
2023/12/22 01:19:59;;;;;;;9.65;8.75;;;;;;;;;;4907055;29;20040;-84
2023/12/22 01:22:25;;;;;;;10.27;9.68;;;;;;;;;;4877705;29;20490;-83
2023/12/22 01:24:50;;;;;;;10.55;9.75;;;;;;;;;;4899194;29;20808;-83
2023/12/22 01:27:16;;;;;;;11.25;9.50;;;;;;;;;;4882874;29;20047;-83
2023/12/22 01:29:42;;;;;;;10.05;9.25;;;;;;;;;;4889089;29;20264;-84
2023/12/22 01:32:07;;;;;;;9.60;8.90;;;;;;;;;;4875920;29;20035;-83
2023/12/22 01:34:33;;;;;;;11.60;9.85;;;;;;;;;;4890056;29;20043;-83
2023/12/22 01:36:58;;;;;;;10.40;9.57;;;;;;;;;;4865075;29;20040;-83
2023/12/22 01:39:24;;;;;;;10.63;9.50;;;;;;;;;;4883804;29;20122;-83
2023/12/22 01:41:50;;;;;;;9.85;8.80;;;;;;;;;;4883210;29;20044;-83
2023/12/22 01:44:15;;;;;;;9.63;8.75;;;;;;;;;;4889000;29;20538;-83
2023/12/22 01:46:41;;;;;;;10.10;9.07;;;;;;;;;;4891746;29;20044;-83
2023/12/22 01:49:08;;;;;;;9.27;8.52;;;;;;;;;;4895272;29;20116;-84
2023/12/22 01:51:37;;;;;;;8.70;8.10;;;;;;;;;;4860609;29;20039;-84
2023/12/22 01:54:04;;;;;;;9.80;8.90;;;;;;;;;;4877785;29;20040;-83
2023/12/22 01:56:30;;;;;;;8.70;8.10;;;;;;;;;;4873379;29;20075;-83
2023/12/22 01:59:00;;;;;;;8.60;8.00;;;;;;;;;;4880860;29;20072;-84
2023/12/22 02:01:27;;;;;;;12.20;8.20;;;;;;;;;;4882645;29;20044;-84
2023/12/22 02:03:53;;;;;;;8.73;8.13;;;;;;;;;;4876212;29;20048;-84
2023/12/22 02:06:20;;;;;;;9.02;7.90;;;;;;;;;;4880505;29;20139;-84
2023/12/22 02:08:49;;;;;;;8.10;7.60;;;;;;;;;;4898787;29;20067;-83
2023/12/22 02:11:15;;;;;;;8.73;8.02;;;;;;;;;;4872660;29;20044;-84
2023/12/22 02:13:43;;;;;;;8.73;8.02;;;;;;;;;;4877194;29;20096;-84
2023/12/22 02:16:19;;;;;;;11.82;8.30;;;;;;;;;;4874907;29;20040;-85
2023/12/22 02:18:47;;;;;;;8.23;7.72;;;;;;;;;;4913412;29;20119;-83
2023/12/22 02:21:13;;;;;;;8.68;7.97;;;;;;;;;;4890481;29;20043;-83
2023/12/22 02:23:39;;;;;;;9.52;8.82;;;;;;;;;;4905922;29;20040;-83
2023/12/22 02:26:34;;;;;;;8.63;7.82;;;;;;;;;;4875998;29;20070;-83
2023/12/22 02:29:01;;;;;;;8.90;8.27;;;;;;;;;;4874873;29;20055;-83
2023/12/22 02:31:44;;;;;;;8.35;7.63;;;;;;;;;;4860585;29;20032;-83
2023/12/22 02:34:13;;;;;;;8.63;7.97;;;;;;;;;;4874954;29;20032;-83
2023/12/22 02:36:41;;;;;;;9.48;7.95;;;;;;;;;;4859927;29;20040;-84
2023/12/22 02:39:08;;;;;;;8.25;7.60;;;;;;;;;;4890032;29;20031;-83
2023/12/22 02:41:35;;;;;;;9.00;8.38;;;;;;;;;;4890146;29;20051;-84
2023/12/22 02:44:01;;;;;;;8.82;8.05;;;;;;;;;;4891703;29;20079;-83
2023/12/22 02:46:27;;;;;;;8.30;7.47;;;;;;;;;;4880686;29;20074;-84
2023/12/22 02:48:53;;;;;;;8.60;7.72;;;;;;;;;;4872296;29;20044;-85
2023/12/22 02:51:18;;;;;;;8.70;8.02;;;;;;;;;;4889934;29;20060;-83
2023/12/22 02:53:44;;;;;;;8.00;7.40;;;;;;;;;;4887989;29;20087;-83
2023/12/22 02:56:09;;;;;;;8.65;7.88;;;;;;;;;;4889186;29;20039;-83
2023/12/22 02:58:35;;;;;;;8.60;7.80;;;;;;;;;;4865164;29;20604;-83
2023/12/22 03:01:00;;;;;;;8.63;7.97;;;;;;;;;;4876741;29;20437;-83
2023/12/22 03:03:26;;;;;;;8.75;7.95;;;;;;;;;;4867192;29;20050;-83
2023/12/22 03:05:52;;;;;;;9.38;8.13;;;;;;;;;;4873204;29;20048;-83
2023/12/22 03:08:17;;;;;;;8.55;7.85;;;;;;;;;;4874301;29;20059;-83
2023/12/22 03:10:43;;;;;;;10.25;8.30;;;;;;;;;;4872687;29;20100;-84
2023/12/22 03:13:08;;;;;;;8.70;7.97;;;;;;;;;;4861434;29;20039;-84
2023/12/22 03:15:34;;;;;;;8.77;8.05;;;;;;;;;;4862058;29;20048;-82
2023/12/22 03:17:59;;;;;;;8.45;7.80;;;;;;;;;;4873170;29;20046;-83
2023/12/22 03:20:26;;;;;;;9.07;8.23;;;;;;;;;;4895880;29;20036;-83
2023/12/22 03:22:51;;;;;;;9.15;8.25;;;;;;;;;;4880177;29;20052;-84
2023/12/22 03:25:17;;;;;;;8.32;7.57;;;;;;;;;;4877631;29;20142;-82
2023/12/22 03:27:42;;;;;;;9.00;8.18;;;;;;;;;;4864413;29;20044;-83
2023/12/22 03:30:08;;;;;;;7.60;7.10;;;;;;;;;;4890921;29;20032;-82
2023/12/22 03:32:34;;;;;;;8.95;8.15;;;;;;;;;;4877078;29;20048;-82
2023/12/22 03:35:00;;;;;;;8.07;7.35;;;;;;;;;;4883123;29;20055;-83
2023/12/22 03:37:25;;;;;;;9.15;7.90;;;;;;;;;;4865097;29;20040;-83
2023/12/22 03:39:51;;;;;;;8.80;8.02;;;;;;;;;;4876251;29;20036;-82
2023/12/22 03:42:16;;;;;;;10.73;7.97;;;;;;;;;;4879152;29;20044;-83
2023/12/22 03:44:42;;;;;;;9.93;7.95;;;;;;;;;;4878943;29;20084;-83
2023/12/22 03:47:08;;;;;;;8.95;8.23;;;;;;;;;;4872904;29;20036;-82
2023/12/22 03:49:33;;;;;;;8.57;7.88;;;;;;;;;;4875684;29;20140;-83
2023/12/22 03:51:59;;;;;;;9.70;7.75;;;;;;;;;;4872750;29;20036;-83
2023/12/22 03:54:24;;;;;;;8.65;7.82;;;;;;;;;;4889682;29;20529;-83
2023/12/22 03:56:50;;;;;;;8.93;7.82;;;;;;;;;;4898794;29;20673;-82
2023/12/22 03:59:18;;;;;;;8.18;7.55;;;;;;;;;;4904406;29;20834;-83
2023/12/22 04:01:44;;;;;;;8.63;8.07;;;;;;;;;;4858096;29;20098;-82
2023/12/22 04:04:09;;;;;;;9.23;8.40;;;;;;;;;;4895248;29;20032;-83
2023/12/22 04:06:40;;;;;;;9.35;8.50;;;;;;;;;;4893662;29;20040;-84
2023/12/22 04:09:05;;;;;;;9.93;8.65;;;;;;;;;;4863770;29;20075;-84
2023/12/22 04:11:31;;;;;;;9.57;7.88;;;;;;;;;;4891953;29;20037;-84
2023/12/22 04:13:56;;;;;;;10.18;8.60;;;;;;;;;;4876071;29;20043;-84
2023/12/22 04:16:22;;;;;;;8.65;7.85;;;;;;;;;;4906858;29;20122;-83
2023/12/22 04:18:47;;;;;;;10.52;7.70;;;;;;;;;;4873041;29;20124;-83
2023/12/22 04:21:13;;;;;;;10.90;8.50;;;;;;;;;;4890596;29;20046;-84
2023/12/22 04:23:39;;;;;;;11.10;8.88;;;;;;;;;;4895666;29;20678;-84
2023/12/22 04:26:04;;;;;;;8.77;7.88;;;;;;;;;;4897522;29;20047;-83
2023/12/22 04:28:30;;;;;;;8.40;7.78;;;;;;;;;;4891796;29;20039;-84
2023/12/22 04:30:56;;;;;;;13.73;8.90;;;;;;;;;;4893958;29;20044;-84
2023/12/22 04:33:21;;;;;;;9.48;8.60;;;;;;;;;;4875359;29;20044;-84
2023/12/22 04:35:47;;;;;;;10.45;8.52;;;;;;;;;;4896341;29;20458;-84
2023/12/22 04:38:12;;;;;;;13.90;8.68;;;;;;;;;;4891305;29;20440;-82
2023/12/22 04:40:38;;;;;;;10.07;8.30;;;;;;;;;;4878566;29;20152;-83
2023/12/22 04:43:04;;;;;;;8.27;7.43;;;;;;;;;;4873815;29;20103;-82
2023/12/22 04:45:29;;;;;;;8.93;8.00;;;;;;;;;;4890569;29;20036;-82
2023/12/22 04:47:55;;;;;;;7.97;7.20;;;;;;;;;;4868392;29;20197;-83
2023/12/22 04:50:20;;;;;;;11.27;7.57;;;;;;;;;;4874741;29;20040;-84
2023/12/22 04:52:46;;;;;;;7.90;7.30;;;;;;;;;;4888363;29;20203;-84
2023/12/22 04:55:11;;;;;;;8.40;7.70;;;;;;;;;;4874764;29;20577;-84
2023/12/22 04:57:37;;;;;;;8.43;7.63;;;;;;;;;;4889940;29;20529;-83
2023/12/22 05:00:03;;;;;;;9.68;7.78;;;;;;;;;;4873958;29;20044;-83
2023/12/22 05:02:29;;;;;;;8.25;6.70;;;;;;;;;;4873380;29;20036;-83
2023/12/22 05:04:54;;;;;;;7.60;6.97;;;;;;;;;;4873258;29;20044;-83
2023/12/22 05:07:20;;;;;;;7.35;6.75;;;;;;;;;;4873516;29;20048;-83
2023/12/22 05:09:45;;;;;;;7.65;6.82;;;;;;;;;;4873844;29;20051;-83
2023/12/22 05:12:11;;;;;;;7.10;6.70;;;;;;;;;;4875045;29;20040;-83
2023/12/22 05:14:37;;;;;;;8.43;6.93;;;;;;;;;;4885886;29;20123;-83
2023/12/22 05:17:02;;;;;;;9.68;7.35;;;;;;;;;;4878282;29;20048;-82
2023/12/22 05:19:28;;;;;;;8.20;7.50;;;;;;;;;;4876032;29;20043;-83
2023/12/22 05:21:55;;;;;;;9.25;7.80;;;;;;;;;;4888609;29;20039;-84
2023/12/22 05:24:22;;;;;;;8.77;7.80;;;;;;;;;;4888082;29;20036;-83
2023/12/22 05:26:47;;;;;;;9.05;8.13;;;;;;;;;;4856135;29;20058;-84
2023/12/22 05:29:13;;;;;;;8.45;7.43;;;;;;;;;;4896973;29;20035;-83
2023/12/22 05:31:39;;;;;;;9.65;8.45;;;;;;;;;;4876552;29;20047;-82
2023/12/22 05:34:05;;;;;;;10.73;7.85;;;;;;;;;;4875730;29;20187;-82
2023/12/22 05:36:32;;;;;;;10.70;7.97;;;;;;;;;;4886078;29;20131;-83
2023/12/22 05:38:58;;;;;;;11.90;8.38;;;;;;;;;;4864669;29;20805;-83
2023/12/22 05:41:23;;;;;;;10.63;8.02;;;;;;;;;;4876281;29;20048;-83
2023/12/22 05:43:49;;;;;;;10.25;8.30;;;;;;;;;;4875826;29;20115;-83
2023/12/22 05:46:14;;;;;;;12.07;9.35;;;;;;;;;;4893530;29;20126;-83
2023/12/22 05:48:40;;;;;;;13.45;9.48;;;;;;;;;;4913269;29;20490;-83
2023/12/22 05:51:09;;;;;;;9.88;8.82;;;;;;;;;;4877134;29;20048;-82
2023/12/22 05:53:35;;;;;;;9.80;8.52;;;;;;;;;;4891962;29;20541;-83
2023/12/22 05:56:01;;;;;;;14.55;8.65;;;;;;;;;;4876324;29;20048;-82
2023/12/22 05:58:26;;;;;;;9.77;8.77;;;;;;;;;;4886604;29;20039;-82
2023/12/22 06:00:52;;;;;;;9.80;8.90;;;;;;;;;;4859647;29;20044;-83
2023/12/22 06:03:17;;;;;;;14.13;8.10;;;;;;;;;;4890961;29;20036;-84
2023/12/22 06:05:43;;;;;;;13.50;9.55;;;;;;;;;;4891794;29;20045;-83
2023/12/22 06:08:09;;;;;;;14.02;7.70;;;;;;;;;;4881593;29;20046;-82
2023/12/22 06:10:35;;;;;;;36.60;9.23;;;;;;;;;;4884228;29;20196;-82
2023/12/22 06:13:03;;;;;;;10.10;8.52;;;;;;;;;;4877625;29;20060;-83
2023/12/22 06:15:29;;;;;;;11.88;8.57;;;;;;;;;;4879423;29;20036;-82
2023/12/22 06:17:55;;;;;;;12.40;8.48;;;;;;;;;;4894024;29;20075;-83
2023/12/22 06:20:20;;;;;;;13.38;8.45;;;;;;;;;;4862491;29;20102;-82
2023/12/22 06:22:46;;;;;;;16.20;8.82;;;;;;;;;;4906367;29;20070;-82
2023/12/22 06:25:12;;;;;;;11.68;8.90;;;;;;;;;;4875666;29;20516;-81
2023/12/22 06:27:37;;;;;;;13.13;8.90;;;;;;;;;;4873550;29;20044;-82
2023/12/22 06:30:05;;;;;;;11.88;7.53;;;;;;;;;;4890822;29;20049;-82
2023/12/22 06:32:30;;;;;;;10.32;7.38;;;;;;;;;;4865307;29;20036;-83
2023/12/22 06:34:56;;;;;;;11.77;7.97;;;;;;;;;;4879034;29;20043;-83
2023/12/22 06:37:21;;;;;;;11.73;8.05;;;;;;;;;;4892824;29;20043;-82
2023/12/22 06:39:47;;;;;;;9.35;7.75;;;;;;;;;;4875326;29;20099;-82
2023/12/22 06:42:13;;;;;;;11.18;7.70;;;;;;;;;;4895593;29;20054;-82
2023/12/22 06:44:42;;;;;;;10.07;7.50;;;;;;;;;;4875727;29;20052;-82
2023/12/22 06:47:08;;;;;;;8.48;7.28;;;;;;;;;;4889879;29;20700;-82
2023/12/22 06:49:34;;;;;;;11.20;8.10;;;;;;;;;;4892592;29;20040;-84
2023/12/22 06:51:59;;;;;;;8.77;7.93;;;;;;;;;;4873910;29;20159;-82
2023/12/22 06:54:25;;;;;;;8.32;7.63;;;;;;;;;;4879221;29;20040;-81
2023/12/22 06:56:50;;;;;;;12.13;8.27;;;;;;;;;;4889939;29;20051;-83
2023/12/22 06:59:16;;;;;;;9.38;8.35;;;;;;;;;;4876749;29;20419;-82
2023/12/22 07:01:41;;;;;;;14.15;8.20;;;;;;;;;;4892317;29;20079;-82
2023/12/22 07:04:07;;;;;;;8.48;7.70;;;;;;;;;;4868895;29;20147;-82
2023/12/22 07:06:34;;;;;;;10.05;7.57;;;;;;;;;;4861225;29;20135;-83
2023/12/22 07:09:11;;;;;;;9.88;7.63;;;;;;;;;;4890828;29;20124;-83
2023/12/22 07:11:41;;;;;;;7.97;7.10;;;;;;;;;;4874230;29;20051;-83
2023/12/22 07:14:07;;;;;;;9.40;7.40;;;;;;;;;;4887401;29;20039;-82
2023/12/22 07:16:33;;;;;;;7.65;6.75;;;;;;;;;;4892435;29;20079;-82
2023/12/22 07:18:59;;;;;;;11.90;7.40;;;;;;;;;;4859204;29;20037;-83
2023/12/22 07:21:25;;;;;;;9.52;7.72;;;;;;;;;;4861715;29;20652;-83
2023/12/22 07:23:51;;;;;;;9.32;7.40;;;;;;;;;;4890923;29;20036;-82
2023/12/22 07:26:17;;;;;;;9.02;7.45;;;;;;;;;;4883142;29;20051;-83
2023/12/22 07:28:46;;;;;;;13.18;8.20;;;;;;;;;;4864967;29;20048;-83
2023/12/22 07:31:11;;;;;;;7.82;7.18;;;;;;;;;;4896275;29;20607;-83
2023/12/22 07:33:37;;;;;;;10.18;8.40;;;;;;;;;;4875154;29;20067;-83
2023/12/22 07:36:03;;;;;;;13.10;7.55;;;;;;;;;;4876312;29;20072;-83
2023/12/22 07:38:28;;;;;;;9.60;7.53;;;;;;;;;;4878756;29;20466;-82
2023/12/22 07:40:54;;;;;;;13.40;8.52;;;;;;;;;;4910852;29;20431;-83
2023/12/22 07:43:20;;;;;;;8.65;7.43;;;;;;;;;;4887989;29;20042;-83
2023/12/22 07:45:45;;;;;;;11.38;7.22;;;;;;;;;;4906670;29;20043;-83
2023/12/22 07:48:11;;;;;;;7.78;7.00;;;;;;;;;;4877205;29;20143;-83
2023/12/22 07:50:37;;;;;;;12.63;6.80;;;;;;;;;;4867623;29;20055;-83
2023/12/22 07:53:03;;;;;;;10.25;6.97;;;;;;;;;;4873606;29;20486;-83
2023/12/22 07:55:28;;;;;;;10.75;7.00;;;;;;;;;;4892628;29;20039;-83
2023/12/22 07:57:54;;;;;;;7.43;6.75;;;;;;;;;;4876668;29;20082;-83
2023/12/22 08:00:19;;;;;;;13.18;7.07;;;;;;;;;;4913511;29;20131;-83
2023/12/22 08:02:45;;;;;;;9.55;7.10;;;;;;;;;;4882676;29;20139;-83
2023/12/22 08:05:11;;;;;;;12.98;6.80;;;;;;;;;;4860329;29;20044;-82
2023/12/22 08:07:37;;;;;;;9.02;6.72;;;;;;;;;;4867075;29;20055;-86
2023/12/22 08:10:03;;;;;;;8.63;6.93;;;;;;;;;;4876133;29;20035;-84
2023/12/22 08:12:29;;;;;;;8.13;7.20;;;;;;;;;;4884495;29;20043;-84
2023/12/22 08:14:54;;;;;;;6.95;6.38;;;;;;;;;;4877980;29;20043;-84
2023/12/22 08:17:20;;;;;;;8.48;7.60;;;;;;;;;;4880982;29;20036;-84
2023/12/22 08:19:47;;;;;;;9.35;6.70;;;;;;;;;;4893450;29;20606;-84
2023/12/22 08:22:13;;;;;;;9.52;7.05;;;;;;;;;;4873192;29;20040;-84
2023/12/22 08:24:42;;;;;;;8.52;7.05;;;;;;;;;;4878740;29;20050;-85
2023/12/22 08:27:08;;;;;;;10.15;6.80;;;;;;;;;;4893195;29;20051;-85
2023/12/22 08:29:34;;;;;;;10.45;7.18;;;;;;;;;;4893004;29;20062;-85
2023/12/22 08:32:00;;;;;;;13.13;7.90;;;;;;;;;;4879896;29;20040;-85
2023/12/22 08:34:26;;;;;;;11.32;7.28;;;;;;;;;;4861778;29;20036;-84
2023/12/22 08:36:52;;;;;;;8.57;6.68;;;;;;;;;;4880513;29;20059;-84
2023/12/22 08:39:17;;;;;;;30.02;18.88;;;;;;;;;;4890070;29;20032;-84
2023/12/22 08:41:43;;;;;;;15.82;8.40;;;;;;;;;;4859996;29;20052;-84
2023/12/22 08:44:09;;;;;;;12.88;7.72;;;;;;;;;;4892252;29;20055;-83
2023/12/22 08:46:35;;;;;;;11.30;7.70;;;;;;;;;;4876158;29;20045;-84
2023/12/22 08:49:02;;;;;;;15.55;7.70;;;;;;;;;;4882032;29;20067;-83
2023/12/22 08:51:28;;;;;;;12.38;7.53;;;;;;;;;;4893501;29;20036;-83
2023/12/22 08:53:55;;;;;;;12.85;8.18;;;;;;;;;;4863606;29;20724;-83
2023/12/22 08:56:22;;;;;;;14.60;8.30;;;;;;;;;;4877410;29;20036;-83
2023/12/22 08:58:51;;;;;;;13.68;7.53;;;;;;;;;;4878230;29;20044;-84
2023/12/22 09:01:18;;;;;;;12.40;8.10;;;;;;;;;;4896690;29;20297;-82
2023/12/22 09:03:47;;;;;;;9.32;7.75;;;;;;;;;;4865872;29;20122;-84
2023/12/22 09:06:21;;;;;;;16.77;7.80;;;;;;;;;;4882999;29;20051;-84
2023/12/22 09:08:47;;;;;;;12.18;6.95;;;;;;;;;;4878448;29;20689;-84
2023/12/22 09:11:16;;;;;;;12.27;7.40;;;;;;;;;;4881769;29;20098;-83
2023/12/22 09:13:43;;;;;;;13.05;7.82;;;;;;;;;;4883357;29;20517;-84
2023/12/22 09:16:09;;;;;;;13.18;6.97;;;;;;;;;;4879917;29;20047;-83
2023/12/22 09:18:35;;;;;;;8.38;6.97;;;;;;;;;;4876587;29;20036;-83
2023/12/22 09:21:02;;;;;;;11.77;7.78;;;;;;;;;;4870931;29;20045;-83
2023/12/22 09:23:28;;;;;;;11.35;7.25;;;;;;;;;;4891378;29;20402;-84
2023/12/22 09:25:55;;;;;;;12.02;7.88;;;;;;;;;;4860262;29;20193;-84
2023/12/22 09:28:20;;;;;;;8.23;7.38;;;;;;;;;;4887172;29;20557;-84
2023/12/22 09:30:46;;;;;;;12.02;7.05;;;;;;;;;;4894230;29;20056;-84
2023/12/22 09:33:12;;;;;;;13.73;7.70;;;;;;;;;;4873278;29;20565;-84
2023/12/22 09:35:41;;;;;;;14.73;8.68;;;;;;;;;;4853565;29;20145;-84
2023/12/22 09:38:09;;;;;;;13.52;8.23;;;;;;;;;;4887621;29;20044;-83
2023/12/22 09:40:36;;;;;;;21.25;8.05;;;;;;;;;;4859971;29;20043;-84
2023/12/22 09:43:05;;;;;;;11.57;7.07;;;;;;;;;;4891670;29;20108;-83
2023/12/22 09:45:33;;;;;;;12.10;6.80;;;;;;;;;;4862699;29;20032;-84
2023/12/22 09:48:00;;;;;;;15.20;7.72;;;;;;;;;;4884575;29;20900;-83
2023/12/22 09:50:30;;;;;;;15.05;8.45;;;;;;;;;;4872661;29;20041;-83
2023/12/22 09:52:56;;;;;;;12.90;8.10;;;;;;;;;;4882689;29;20056;-78
2023/12/22 09:55:22;;;;;;;15.93;8.35;;;;;;;;;;4867046;29;20047;-78
2023/12/22 09:57:49;;;;;;;12.30;8.38;;;;;;;;;;4866354;29;20044;-78
2023/12/22 10:00:16;;;;;;;14.93;8.18;;;;;;;;;;4875516;29;20036;-77
2023/12/22 10:02:42;;;;;;;17.02;8.18;;;;;;;;;;4879271;29;20032;-77
2023/12/22 10:05:10;;;;;;;14.80;8.65;;;;;;;;;;4864238;29;20044;-77
2023/12/22 10:07:35;;;;;;;10.80;7.45;;;;;;;;;;4893373;29;20040;-77
2023/12/22 10:10:04;;;;;;;14.80;7.55;;;;;;;;;;4872292;29;20043;-78
2023/12/22 10:12:33;;;;;;;12.77;9.38;;;;;;;;;;4876558;29;20066;-77
2023/12/22 10:15:00;;;;;;;17.92;9.32;;;;;;;;;;4863089;29;20176;-78
2023/12/22 10:17:27;;;;;;;11.57;7.45;;;;;;;;;;4895639;29;20047;-78
2023/12/22 10:19:52;;;;;;;13.80;7.72;;;;;;;;;;4903835;29;20062;-77
2023/12/22 10:22:18;;;;;;;18.08;8.13;;;;;;;;;;4896936;29;20478;-77
2023/12/22 10:24:50;;;;;;;18.38;7.97;;;;;;;;;;4873567;29;20043;-78
2023/12/22 10:27:23;;;;;;;27.30;8.82;;;;;;;;;;4895886;29;20032;-77
2023/12/22 10:29:58;;;;;;;10.50;7.78;;;;;;;;;;4885364;29;20051;-78
2023/12/22 10:32:23;;;;;;;16.10;7.50;;;;;;;;;;4870223;29;20139;-77
2023/12/22 10:34:52;;;;;;;14.73;7.50;;;;;;;;;;4898344;29;20744;-78
2023/12/22 10:37:17;;;;;;;15.43;7.53;;;;;;;;;;4878462;29;20055;-77
2023/12/22 10:39:43;;;;;;;21.25;7.53;;;;;;;;;;4888286;29;20036;-77
2023/12/22 10:42:09;;;;;;;14.55;7.95;;;;;;;;;;4894798;29;20048;-77
2023/12/22 10:44:35;;;;;;;11.30;7.35;;;;;;;;;;4888163;29;20044;-77
2023/12/22 10:47:01;;;;;;;15.82;7.93;;;;;;;;;;4901457;29;20092;-78
2023/12/22 10:49:26;;;;;;;14.93;7.18;;;;;;;;;;4896147;29;20048;-78
2023/12/22 10:51:52;;;;;;;12.93;7.68;;;;;;;;;;4880912;29;20046;-78
2023/12/22 10:54:19;;;;;;;14.85;7.20;;;;;;;;;;4879343;29;20127;-78
2023/12/22 10:56:45;;;;;;;11.57;7.38;;;;;;;;;;4900215;29;20040;-78
2023/12/22 10:59:10;;;;;;;11.40;7.88;;;;;;;;;;4895562;29;20048;-76
2023/12/22 11:01:40;;;;;;;13.02;8.32;;;;;;;;;;4898761;29;20072;-76
2023/12/22 11:04:06;;;;;;;;;;;;;;;;;;4867904;29;20047;-77
2023/12/22 11:06:35;;;;;;;10.73;7.47;;;;;;;;;;4882697;29;21448;-76
2023/12/22 11:09:06;;;;;;;7.70;6.88;;;;;;;;;;4885571;29;20039;-78
2023/12/22 11:11:39;;;;;;;7.32;6.68;;;;;;;;;;4904737;29;20059;-83
2023/12/22 11:14:06;;;;;;;9.93;7.43;;;;;;;;;;4888052;29;20078;-82
2023/12/22 11:16:34;;;;;;;8.63;7.57;;;;;;;;;;4873573;29;20111;-82
2023/12/22 11:19:03;;;;;;;9.25;6.95;;;;;;;;;;4879784;29;20043;-82
2023/12/22 11:21:30;;;;;;;13.00;6.95;;;;;;;;;;4902644;29;20042;-82
2023/12/22 11:23:59;;;;;;;8.75;6.63;;;;;;;;;;4873621;29;20047;-83
2023/12/22 11:26:26;;;;;;;8.23;7.03;;;;;;;;;;4876054;29;20047;-85
2023/12/22 11:28:52;;;;;;;9.90;7.80;;;;;;;;;;4887478;29;20104;-82
2023/12/22 11:31:18;;;;;;;7.97;7.18;;;;;;;;;;4873292;29;20313;-84
2023/12/22 11:33:46;;;;;;;7.28;6.38;;;;;;;;;;4878327;29;20742;-82
2023/12/22 11:36:13;;;;;;;11.52;6.65;;;;;;;;;;4892450;29;20036;-82
2023/12/22 11:38:43;;;;;;;8.07;6.70;;;;;;;;;;4877187;29;20090;-84
2023/12/22 11:41:12;;;;;;;6.65;6.15;;;;;;;;;;4896305;29;20110;-84
2023/12/22 11:43:40;;;;;;;8.00;7.00;;;;;;;;;;4887042;29;20072;-83
2023/12/22 11:46:05;;;;;;;7.13;6.45;;;;;;;;;;4874870;29;20044;-85
2023/12/22 11:48:32;;;;;;;7.95;6.40;;;;;;;;;;4876397;29;20050;-86
2023/12/22 11:50:58;;;;;;;7.95;7.28;;;;;;;;;;4894090;29;20063;-85
2023/12/22 11:53:25;;;;;;;7.47;6.82;;;;;;;;;;4866624;29;20044;-85
2023/12/22 11:56:04;;;;;;;8.13;7.28;;;;;;;;;;4867905;29;20111;-84
2023/12/22 11:58:51;;;;;;;9.50;7.32;;;;;;;;;;4887615;29;20040;-84
2023/12/22 12:01:18;;;;;;;9.20;7.38;;;;;;;;;;4869989;29;20031;-84
2023/12/22 12:03:53;;;;;;;10.25;7.93;;;;;;;;;;4863150;29;20161;-86
2023/12/22 12:06:26;;;;;;;11.52;7.82;;;;;;;;;;4876531;29;20514;-86
2023/12/22 12:08:56;;;;;;;12.25;7.85;;;;;;;;;;4903939;29;20044;-86
2023/12/22 12:12:01;;;;;;;11.55;9.23;;;;;;;;;;4868262;29;20149;-85
2023/12/22 12:14:35;;;;;;;15.10;8.23;;;;;;;;;;4911212;29;20032;-84
2023/12/22 12:17:08;;;;;;;11.60;8.00;;;;;;;;;;4879950;29;20040;-82
2023/12/22 12:19:44;;;;;;;8.07;7.25;;;;;;;;;;4900236;29;20052;-87
2023/12/22 12:22:12;;;;;;;9.88;7.82;;;;;;;;;;4877513;29;20043;-86
2023/12/22 12:24:38;;;;;;;7.72;7.03;;;;;;;;;;4883395;29;20050;-87
2023/12/22 12:27:04;;;;;;;12.57;7.88;;;;;;;;;;4864094;29;20446;-87
2023/12/22 12:29:32;;;;;;;7.70;7.15;;;;;;;;;;4880506;29;20084;-87
2023/12/22 12:32:05;;;;;;;8.05;7.38;;;;;;;;;;4879315;29;20042;-86
2023/12/22 12:34:31;;;;;;;8.10;7.50;;;;;;;;;;4892152;29;20035;-86
2023/12/22 12:36:58;;;;;;;8.50;7.78;;;;;;;;;;4863684;29;20771;-86
2023/12/22 12:39:29;;;;;;;7.93;7.32;;;;;;;;;;4881818;29;20496;-86
2023/12/22 12:41:56;;;;;;;7.40;6.90;;;;;;;;;;4884817;29;20120;-86
2023/12/22 12:44:24;;;;;;;7.85;7.35;;;;;;;;;;4893060;29;20463;-86
2023/12/22 12:46:50;;;;;;;8.43;7.72;;;;;;;;;;4901135;29;20036;-86
2023/12/22 12:49:15;;;;;;;7.35;6.85;;;;;;;;;;4878486;29;20051;-86
2023/12/22 12:51:48;;;;;;;7.55;7.03;;;;;;;;;;4879600;29;20083;-85
2023/12/22 12:54:15;;;;;;;7.82;7.32;;;;;;;;;;4894069;29;20044;-84
2023/12/22 12:56:42;;;;;;;7.60;7.10;;;;;;;;;;4867338;29;20426;-85
2023/12/22 12:59:09;;;;;;;7.82;7.35;;;;;;;;;;4897893;29;20046;-85
2023/12/22 13:01:53;;;;;;;8.25;7.65;;;;;;;;;;4864374;29;20048;-85
2023/12/22 13:04:18;;;;;;;7.53;6.93;;;;;;;;;;4883129;29;20048;-85
2023/12/22 13:06:48;;;;;;;8.40;7.68;;;;;;;;;;4891816;29;20048;-85
2023/12/22 13:09:15;;;;;;;7.53;7.13;;;;;;;;;;4897947;29;20096;-85
2023/12/22 13:11:48;;;;;;;7.88;7.18;;;;;;;;;;4869189;29;20036;-85
2023/12/22 13:14:27;;;;;;;7.63;7.13;;;;;;;;;;4885033;29;20036;-85
2023/12/22 13:16:56;;;;;;;7.57;6.97;;;;;;;;;;4895116;29;20036;-85
2023/12/22 13:19:24;;;;;;;7.40;6.90;;;;;;;;;;4874465;29;20040;-85
2023/12/22 13:21:51;;;;;;;8.15;7.55;;;;;;;;;;4887770;29;20060;-87
2023/12/22 13:24:17;;;;;;;7.35;6.90;;;;;;;;;;4853510;29;20044;-80
2023/12/22 13:26:43;;;;;;;7.60;7.10;;;;;;;;;;4900444;29;20060;-81
2023/12/22 13:29:10;;;;;;;7.65;7.25;;;;;;;;;;4868124;29;20076;-80
2023/12/22 13:31:38;;;;;;;7.65;7.25;;;;;;;;;;4886773;29;20595;-81
2023/12/22 13:34:09;;;;;;;7.80;7.20;;;;;;;;;;4896557;29;20146;-81
2023/12/22 13:36:36;;;;;;;7.40;7.00;;;;;;;;;;4880133;29;20606;-81
2023/12/22 13:39:04;;;;;;;7.82;7.10;;;;;;;;;;4881618;29;20039;-81
2023/12/22 13:41:33;;;;;;;7.30;6.80;;;;;;;;;;4894606;29;20051;-81
2023/12/22 13:44:03;;;;;;;7.07;6.68;;;;;;;;;;4892387;29;20043;-80
2023/12/22 13:46:29;;;;;;;7.40;7.00;;;;;;;;;;4856742;29;20063;-80
2023/12/22 13:48:55;;;;;;;7.18;6.78;;;;;;;;;;4890957;29;20202;-80
2023/12/22 13:51:21;;;;;;;7.00;6.70;;;;;;;;;;4875686;29;20036;-80
2023/12/22 13:53:48;;;;;;;7.70;7.20;;;;;;;;;;4887799;29;20145;-81
2023/12/22 13:56:13;;;;;;;7.47;7.07;;;;;;;;;;4871382;29;20074;-80
2023/12/22 13:58:46;;;;;;;7.57;6.97;;;;;;;;;;4892550;29;20039;-80
2023/12/22 14:01:15;;;;;;;7.40;7.00;;;;;;;;;;4870799;29;20502;-80
2023/12/22 14:03:41;;;;;;;7.80;7.40;;;;;;;;;;4883011;29;20076;-81
2023/12/22 14:06:09;;;;;;;7.65;7.25;;;;;;;;;;4899573;29;20036;-81
2023/12/22 14:08:41;;;;;;;7.80;7.30;;;;;;;;;;4884181;29;20079;-81
2023/12/22 14:11:08;;;;;;;7.88;7.38;;;;;;;;;;4883397;29;20134;-81
2023/12/22 14:13:38;;;;;;;7.13;6.72;;;;;;;;;;4897959;29;20127;-80
2023/12/22 14:16:06;;;;;;;7.40;7.00;;;;;;;;;;4862994;29;20054;-81
2023/12/22 14:18:31;;;;;;;7.63;7.13;;;;;;;;;;4899196;29;20040;-81
2023/12/22 14:20:58;;;;;;;7.30;6.90;;;;;;;;;;4883833;29;20054;-81
2023/12/22 14:23:24;;;;;;;8.10;7.60;;;;;;;;;;4866056;29;20038;-80
2023/12/22 14:25:50;;;;;;;7.70;7.20;;;;;;;;;;4870682;29;20048;-81
2023/12/22 14:28:15;;;;;;;8.77;8.27;;;;;;;;;;4908326;29;20032;-81
2023/12/22 14:30:41;;;;;;;7.90;7.50;;;;;;;;;;4879025;29;20047;-80
2023/12/22 14:33:07;;;;;;;7.32;6.93;;;;;;;;;;4898742;29;20079;-80
2023/12/22 14:35:32;;;;;;;7.43;7.03;;;;;;;;;;4884582;29;20040;-80
2023/12/22 14:37:59;;;;;;;7.70;7.30;;;;;;;;;;4899464;29;20116;-80